sensor_id;sensor_type;location;lat;lon;timestamp;P1;durP1;ratioP1;P2;durP2;ratioP2
44766;SDS011;30487;48.716;9.272;2023-04-02T00:01:22;0.50;;;0.22;;
44766;SDS011;30487;48.716;9.272;2023-04-02T00:08:59;0.60;;;0.20;;
44766;SDS011;30487;48.716;9.272;2023-04-02T00:11:43;1.05;;;0.35;;
44766;SDS011;30487;48.716;9.272;2023-04-02T00:14:14;2.00;;;0.30;;
44766;SDS011;30487;48.716;9.272;2023-04-02T00:16:45;0.30;;;0.25;;
44766;SDS011;30487;48.716;9.272;2023-04-02T00:19:12;1.02;;;0.28;;
44766;SDS011;30487;48.716;9.272;2023-04-02T00:21:42;1.02;;;0.40;;
44766;SDS011;30487;48.716;9.272;2023-04-02T00:24:13;2.00;;;0.40;;
44766;SDS011;30487;48.716;9.272;2023-04-02T00:26:43;0.50;;;0.40;;
44766;SDS011;30487;48.716;9.272;2023-04-02T00:29:12;1.90;;;0.30;;
44766;SDS011;30487;48.716;9.272;2023-04-02T00:31:40;2.05;;;0.30;;
44766;SDS011;30487;48.716;9.272;2023-04-02T00:34:37;0.75;;;0.22;;
44766;SDS011;30487;48.716;9.272;2023-04-02T00:37:03;2.15;;;0.40;;
44766;SDS011;30487;48.716;9.272;2023-04-02T00:39:30;0.40;;;0.20;;
44766;SDS011;30487;48.716;9.272;2023-04-02T00:44:32;0.30;;;0.22;;
44766;SDS011;30487;48.716;9.272;2023-04-02T00:47:03;1.17;;;0.40;;
44766;SDS011;30487;48.716;9.272;2023-04-02T00:49:35;0.52;;;0.30;;
44766;SDS011;30487;48.716;9.272;2023-04-02T00:52:05;0.55;;;0.20;;
44766;SDS011;30487;48.716;9.272;2023-04-02T00:54:41;0.35;;;0.20;;
44766;SDS011;30487;48.716;9.272;2023-04-02T00:57:19;0.85;;;0.20;;
44766;SDS011;30487;48.716;9.272;2023-04-02T01:02:36;2.20;;;0.20;;
44766;SDS011;30487;48.716;9.272;2023-04-02T01:18:36;1.10;;;0.30;;
44766;SDS011;30487;48.716;9.272;2023-04-02T01:24:20;0.40;;;0.30;;
44766;SDS011;30487;48.716;9.272;2023-04-02T01:26:57;0.65;;;0.30;;
44766;SDS011;30487;48.716;9.272;2023-04-02T01:29:35;0.20;;;0.20;;
44766;SDS011;30487;48.716;9.272;2023-04-02T01:32:04;0.35;;;0.20;;
44766;SDS011;30487;48.716;9.272;2023-04-02T01:34:33;1.77;;;0.40;;
44766;SDS011;30487;48.716;9.272;2023-04-02T01:42:55;0.40;;;0.20;;
44766;SDS011;30487;48.716;9.272;2023-04-02T01:45:23;0.50;;;0.20;;
44766;SDS011;30487;48.716;9.272;2023-04-02T01:47:49;0.70;;;0.30;;
44766;SDS011;30487;48.716;9.272;2023-04-02T01:52:43;0.95;;;0.30;;
44766;SDS011;30487;48.716;9.272;2023-04-02T01:55:12;0.22;;;0.20;;
44766;SDS011;30487;48.716;9.272;2023-04-02T01:57:41;0.50;;;0.30;;
44766;SDS011;30487;48.716;9.272;2023-04-02T02:00:11;0.47;;;0.30;;
44766;SDS011;30487;48.716;9.272;2023-04-02T02:02:41;0.47;;;0.17;;
44766;SDS011;30487;48.716;9.272;2023-04-02T02:05:11;1.00;;;0.38;;
44766;SDS011;30487;48.716;9.272;2023-04-02T02:07:38;0.60;;;0.30;;
44766;SDS011;30487;48.716;9.272;2023-04-02T02:10:05;0.63;;;0.28;;
44766;SDS011;30487;48.716;9.272;2023-04-02T02:12:40;0.30;;;0.20;;
44766;SDS011;30487;48.716;9.272;2023-04-02T02:15:11;0.95;;;0.22;;
44766;SDS011;30487;48.716;9.272;2023-04-02T02:17:41;0.60;;;0.30;;
44766;SDS011;30487;48.716;9.272;2023-04-02T02:20:07;0.60;;;0.30;;
44766;SDS011;30487;48.716;9.272;2023-04-02T02:22:35;1.02;;;0.20;;
44766;SDS011;30487;48.716;9.272;2023-04-02T02:25:09;0.32;;;0.20;;
44766;SDS011;30487;48.716;9.272;2023-04-02T02:30:29;0.93;;;0.50;;
44766;SDS011;30487;48.716;9.272;2023-04-02T02:36:03;1.90;;;0.30;;
44766;SDS011;30487;48.716;9.272;2023-04-02T02:41:38;0.38;;;0.20;;
44766;SDS011;30487;48.716;9.272;2023-04-02T02:46:50;2.08;;;0.50;;
44766;SDS011;30487;48.716;9.272;2023-04-02T02:49:21;1.33;;;0.40;;
44766;SDS011;30487;48.716;9.272;2023-04-02T02:52:12;0.75;;;0.40;;
44766;SDS011;30487;48.716;9.272;2023-04-02T02:54:37;1.23;;;0.50;;
44766;SDS011;30487;48.716;9.272;2023-04-02T02:57:07;0.95;;;0.30;;
44766;SDS011;30487;48.716;9.272;2023-04-02T02:59:37;0.60;;;0.30;;
44766;SDS011;30487;48.716;9.272;2023-04-02T03:02:02;0.98;;;0.30;;
44766;SDS011;30487;48.716;9.272;2023-04-02T03:04:31;0.88;;;0.40;;
44766;SDS011;30487;48.716;9.272;2023-04-02T03:06:59;2.40;;;0.40;;
44766;SDS011;30487;48.716;9.272;2023-04-02T03:17:44;1.55;;;0.50;;
44766;SDS011;30487;48.716;9.272;2023-04-02T03:22:55;1.23;;;0.47;;
44766;SDS011;30487;48.716;9.272;2023-04-02T03:28:02;0.75;;;0.38;;
44766;SDS011;30487;48.716;9.272;2023-04-02T03:30:51;1.70;;;0.50;;
44766;SDS011;30487;48.716;9.272;2023-04-02T03:33:33;0.60;;;0.30;;
44766;SDS011;30487;48.716;9.272;2023-04-02T03:39:15;1.90;;;0.60;;
44766;SDS011;30487;48.716;9.272;2023-04-02T03:41:46;1.00;;;0.47;;
44766;SDS011;30487;48.716;9.272;2023-04-02T03:44:53;2.38;;;0.45;;
44766;SDS011;30487;48.716;9.272;2023-04-02T03:47:33;0.88;;;0.40;;
44766;SDS011;30487;48.716;9.272;2023-04-02T03:52:36;0.85;;;0.35;;
44766;SDS011;30487;48.716;9.272;2023-04-02T03:55:08;1.42;;;0.60;;
44766;SDS011;30487;48.716;9.272;2023-04-02T04:02:59;0.98;;;0.60;;
44766;SDS011;30487;48.716;9.272;2023-04-02T04:05:35;0.88;;;0.50;;
44766;SDS011;30487;48.716;9.272;2023-04-02T04:08:12;3.85;;;0.70;;
44766;SDS011;30487;48.716;9.272;2023-04-02T04:10:40;1.42;;;0.52;;
44766;SDS011;30487;48.716;9.272;2023-04-02T04:13:12;2.20;;;0.60;;
44766;SDS011;30487;48.716;9.272;2023-04-02T04:18:37;1.48;;;0.50;;
44766;SDS011;30487;48.716;9.272;2023-04-02T04:21:24;1.98;;;0.47;;
44766;SDS011;30487;48.716;9.272;2023-04-02T04:23:56;0.63;;;0.35;;
44766;SDS011;30487;48.716;9.272;2023-04-02T04:26:32;1.65;;;0.40;;
44766;SDS011;30487;48.716;9.272;2023-04-02T04:29:18;2.38;;;0.50;;
44766;SDS011;30487;48.716;9.272;2023-04-02T04:32:11;2.88;;;0.50;;
44766;SDS011;30487;48.716;9.272;2023-04-02T04:34:51;1.35;;;0.60;;
44766;SDS011;30487;48.716;9.272;2023-04-02T04:37:23;1.42;;;0.63;;
44766;SDS011;30487;48.716;9.272;2023-04-02T04:39:58;1.08;;;0.50;;
44766;SDS011;30487;48.716;9.272;2023-04-02T04:42:43;1.15;;;0.60;;
44766;SDS011;30487;48.716;9.272;2023-04-02T04:47:43;0.75;;;0.43;;
44766;SDS011;30487;48.716;9.272;2023-04-02T04:50:18;1.15;;;0.52;;
44766;SDS011;30487;48.716;9.272;2023-04-02T04:52:54;4.60;;;0.75;;
44766;SDS011;30487;48.716;9.272;2023-04-02T04:57:46;1.67;;;0.47;;
44766;SDS011;30487;48.716;9.272;2023-04-02T05:00:21;1.58;;;0.50;;
44766;SDS011;30487;48.716;9.272;2023-04-02T05:03:01;2.33;;;0.68;;
44766;SDS011;30487;48.716;9.272;2023-04-02T05:05:37;1.45;;;0.60;;
44766;SDS011;30487;48.716;9.272;2023-04-02T05:08:08;1.42;;;0.52;;
44766;SDS011;30487;48.716;9.272;2023-04-02T05:10:48;1.58;;;0.60;;
44766;SDS011;30487;48.716;9.272;2023-04-02T05:13:24;0.60;;;0.40;;
44766;SDS011;30487;48.716;9.272;2023-04-02T05:16:22;1.30;;;0.55;;
44766;SDS011;30487;48.716;9.272;2023-04-02T05:19:13;3.97;;;0.70;;
44766;SDS011;30487;48.716;9.272;2023-04-02T05:22:02;3.45;;;0.70;;
44766;SDS011;30487;48.716;9.272;2023-04-02T05:24:58;1.73;;;0.50;;
44766;SDS011;30487;48.716;9.272;2023-04-02T05:33:26;2.30;;;0.50;;
44766;SDS011;30487;48.716;9.272;2023-04-02T05:35:58;0.73;;;0.40;;
44766;SDS011;30487;48.716;9.272;2023-04-02T05:38:28;1.65;;;0.50;;
44766;SDS011;30487;48.716;9.272;2023-04-02T05:43:27;1.67;;;0.60;;
44766;SDS011;30487;48.716;9.272;2023-04-02T05:45:56;0.88;;;0.40;;
44766;SDS011;30487;48.716;9.272;2023-04-02T05:48:28;1.42;;;0.60;;
44766;SDS011;30487;48.716;9.272;2023-04-02T05:51:01;1.90;;;0.57;;
44766;SDS011;30487;48.716;9.272;2023-04-02T05:53:39;1.45;;;0.47;;
44766;SDS011;30487;48.716;9.272;2023-04-02T05:56:14;2.78;;;0.60;;
44766;SDS011;30487;48.716;9.272;2023-04-02T05:58:51;2.35;;;0.50;;
44766;SDS011;30487;48.716;9.272;2023-04-02T06:01:38;3.40;;;0.70;;
44766;SDS011;30487;48.716;9.272;2023-04-02T06:04:22;1.42;;;0.60;;
44766;SDS011;30487;48.716;9.272;2023-04-02T06:07:13;1.02;;;0.50;;
44766;SDS011;30487;48.716;9.272;2023-04-02T06:10:02;2.08;;;0.70;;
44766;SDS011;30487;48.716;9.272;2023-04-02T06:12:34;1.30;;;0.57;;
44766;SDS011;30487;48.716;9.272;2023-04-02T06:15:07;2.03;;;0.77;;
44766;SDS011;30487;48.716;9.272;2023-04-02T06:20:15;1.75;;;0.60;;
44766;SDS011;30487;48.716;9.272;2023-04-02T06:22:43;1.15;;;0.50;;
44766;SDS011;30487;48.716;9.272;2023-04-02T06:27:49;1.80;;;0.70;;
44766;SDS011;30487;48.716;9.272;2023-04-02T06:30:27;2.92;;;1.00;;
44766;SDS011;30487;48.716;9.272;2023-04-02T06:32:56;2.17;;;1.05;;
44766;SDS011;30487;48.716;9.272;2023-04-02T06:35:22;2.00;;;0.80;;
44766;SDS011;30487;48.716;9.272;2023-04-02T06:37:49;1.23;;;0.60;;
44766;SDS011;30487;48.716;9.272;2023-04-02T06:40:24;1.23;;;0.60;;
44766;SDS011;30487;48.716;9.272;2023-04-02T06:42:51;1.55;;;0.60;;
44766;SDS011;30487;48.716;9.272;2023-04-02T06:45:25;1.27;;;0.50;;
44766;SDS011;30487;48.716;9.272;2023-04-02T06:47:58;1.23;;;0.60;;
44766;SDS011;30487;48.716;9.272;2023-04-02T06:50:29;2.28;;;0.60;;
44766;SDS011;30487;48.716;9.272;2023-04-02T06:53:08;3.80;;;0.80;;
44766;SDS011;30487;48.716;9.272;2023-04-02T06:58:30;2.30;;;0.70;;
44766;SDS011;30487;48.716;9.272;2023-04-02T07:00:55;2.85;;;0.70;;
44766;SDS011;30487;48.716;9.272;2023-04-02T07:03:25;2.13;;;0.77;;
44766;SDS011;30487;48.716;9.272;2023-04-02T07:05:53;2.72;;;0.70;;
44766;SDS011;30487;48.716;9.272;2023-04-02T07:08:22;3.25;;;1.00;;
44766;SDS011;30487;48.716;9.272;2023-04-02T07:10:50;1.95;;;0.80;;
44766;SDS011;30487;48.716;9.272;2023-04-02T07:13:17;2.17;;;0.68;;
44766;SDS011;30487;48.716;9.272;2023-04-02T07:15:44;1.70;;;0.80;;
44766;SDS011;30487;48.716;9.272;2023-04-02T07:18:17;3.05;;;0.75;;
44766;SDS011;30487;48.716;9.272;2023-04-02T07:20:57;1.20;;;0.52;;
44766;SDS011;30487;48.716;9.272;2023-04-02T07:23:26;1.13;;;0.63;;
44766;SDS011;30487;48.716;9.272;2023-04-02T07:25:52;2.63;;;0.60;;
44766;SDS011;30487;48.716;9.272;2023-04-02T07:28:19;1.58;;;0.70;;
44766;SDS011;30487;48.716;9.272;2023-04-02T07:30:46;1.10;;;0.50;;
44766;SDS011;30487;48.716;9.272;2023-04-02T07:33:16;1.58;;;0.60;;
44766;SDS011;30487;48.716;9.272;2023-04-02T07:35:44;1.55;;;0.70;;
44766;SDS011;30487;48.716;9.272;2023-04-02T07:38:10;1.40;;;0.60;;
44766;SDS011;30487;48.716;9.272;2023-04-02T07:40:36;2.17;;;0.73;;
44766;SDS011;30487;48.716;9.272;2023-04-02T07:43:02;2.25;;;0.70;;
44766;SDS011;30487;48.716;9.272;2023-04-02T07:45:28;1.85;;;0.60;;
44766;SDS011;30487;48.716;9.272;2023-04-02T07:47:54;1.70;;;0.50;;
44766;SDS011;30487;48.716;9.272;2023-04-02T07:50:20;2.58;;;0.68;;
44766;SDS011;30487;48.716;9.272;2023-04-02T07:52:46;1.58;;;0.60;;
44766;SDS011;30487;48.716;9.272;2023-04-02T07:55:13;1.55;;;0.52;;
44766;SDS011;30487;48.716;9.272;2023-04-02T07:57:40;2.08;;;0.50;;
44766;SDS011;30487;48.716;9.272;2023-04-02T08:00:12;1.55;;;0.50;;
44766;SDS011;30487;48.716;9.272;2023-04-02T08:02:38;2.33;;;0.50;;
44766;SDS011;30487;48.716;9.272;2023-04-02T08:05:04;1.40;;;0.68;;
44766;SDS011;30487;48.716;9.272;2023-04-02T08:07:30;1.88;;;0.63;;
44766;SDS011;30487;48.716;9.272;2023-04-02T08:09:56;2.08;;;0.60;;
44766;SDS011;30487;48.716;9.272;2023-04-02T08:12:21;1.77;;;0.65;;
44766;SDS011;30487;48.716;9.272;2023-04-02T08:14:47;3.75;;;0.60;;
44766;SDS011;30487;48.716;9.272;2023-04-02T08:17:12;1.30;;;0.38;;
44766;SDS011;30487;48.716;9.272;2023-04-02T08:19:38;3.45;;;0.70;;
44766;SDS011;30487;48.716;9.272;2023-04-02T08:22:03;1.13;;;0.40;;
44766;SDS011;30487;48.716;9.272;2023-04-02T08:24:29;1.83;;;0.52;;
44766;SDS011;30487;48.716;9.272;2023-04-02T08:26:55;2.38;;;0.50;;
44766;SDS011;30487;48.716;9.272;2023-04-02T08:29:20;1.83;;;0.70;;
44766;SDS011;30487;48.716;9.272;2023-04-02T08:31:46;3.08;;;0.57;;
44766;SDS011;30487;48.716;9.272;2023-04-02T08:34:12;1.58;;;0.50;;
44766;SDS011;30487;48.716;9.272;2023-04-02T08:36:38;1.23;;;0.50;;
44766;SDS011;30487;48.716;9.272;2023-04-02T08:39:07;1.80;;;0.50;;
44766;SDS011;30487;48.716;9.272;2023-04-02T08:41:37;3.55;;;0.70;;
44766;SDS011;30487;48.716;9.272;2023-04-02T08:44:38;1.45;;;0.60;;
44766;SDS011;30487;48.716;9.272;2023-04-02T08:47:13;0.85;;;0.40;;
44766;SDS011;30487;48.716;9.272;2023-04-02T08:49:50;1.55;;;0.45;;
44766;SDS011;30487;48.716;9.272;2023-04-02T08:52:25;2.30;;;0.60;;
44766;SDS011;30487;48.716;9.272;2023-04-02T08:54:54;2.72;;;0.60;;
44766;SDS011;30487;48.716;9.272;2023-04-02T08:57:39;1.95;;;0.75;;
44766;SDS011;30487;48.716;9.272;2023-04-02T09:00:38;1.45;;;0.60;;
44766;SDS011;30487;48.716;9.272;2023-04-02T09:03:48;1.38;;;0.50;;
44766;SDS011;30487;48.716;9.272;2023-04-02T09:06:02;2.53;;;0.68;;
44766;SDS011;30487;48.716;9.272;2023-04-02T09:08:31;1.92;;;0.40;;
44766;SDS011;30487;48.716;9.272;2023-04-02T09:11:05;0.63;;;0.40;;
44766;SDS011;30487;48.716;9.272;2023-04-02T09:13:38;1.20;;;0.40;;
44766;SDS011;30487;48.716;9.272;2023-04-02T09:16:12;0.82;;;0.40;;
44766;SDS011;30487;48.716;9.272;2023-04-02T09:18:40;2.40;;;0.40;;
44766;SDS011;30487;48.716;9.272;2023-04-02T09:23:54;1.25;;;0.40;;
44766;SDS011;30487;48.716;9.272;2023-04-02T09:26:24;0.68;;;0.40;;
44766;SDS011;30487;48.716;9.272;2023-04-02T09:28:54;1.90;;;0.40;;
44766;SDS011;30487;48.716;9.272;2023-04-02T09:31:48;1.98;;;0.55;;
44766;SDS011;30487;48.716;9.272;2023-04-02T09:34:30;0.65;;;0.30;;
44766;SDS011;30487;48.716;9.272;2023-04-02T09:37:05;1.08;;;0.47;;
44766;SDS011;30487;48.716;9.272;2023-04-02T09:39:33;2.17;;;0.50;;
44766;SDS011;30487;48.716;9.272;2023-04-02T09:41:59;3.05;;;0.50;;
44766;SDS011;30487;48.716;9.272;2023-04-02T09:44:35;2.17;;;0.50;;
44766;SDS011;30487;48.716;9.272;2023-04-02T09:47:02;2.78;;;0.60;;
44766;SDS011;30487;48.716;9.272;2023-04-02T09:49:31;1.63;;;0.60;;
44766;SDS011;30487;48.716;9.272;2023-04-02T09:52:06;1.23;;;0.50;;
44766;SDS011;30487;48.716;9.272;2023-04-02T09:54:32;3.65;;;0.70;;
44766;SDS011;30487;48.716;9.272;2023-04-02T09:57:05;2.45;;;0.80;;
44766;SDS011;30487;48.716;9.272;2023-04-02T09:59:40;1.50;;;0.77;;
44766;SDS011;30487;48.716;9.272;2023-04-02T10:02:26;2.55;;;0.80;;
44766;SDS011;30487;48.716;9.272;2023-04-02T10:04:53;1.45;;;0.70;;
44766;SDS011;30487;48.716;9.272;2023-04-02T10:07:38;1.75;;;0.70;;
44766;SDS011;30487;48.716;9.272;2023-04-02T10:10:26;3.25;;;0.70;;
44766;SDS011;30487;48.716;9.272;2023-04-02T10:13:17;1.95;;;0.70;;
44766;SDS011;30487;48.716;9.272;2023-04-02T10:15:43;1.08;;;0.68;;
44766;SDS011;30487;48.716;9.272;2023-04-02T10:21:11;4.82;;;1.05;;
44766;SDS011;30487;48.716;9.272;2023-04-02T10:23:39;2.80;;;0.85;;
44766;SDS011;30487;48.716;9.272;2023-04-02T10:31:50;1.48;;;0.77;;
44766;SDS011;30487;48.716;9.272;2023-04-02T10:36:58;2.72;;;0.88;;
44766;SDS011;30487;48.716;9.272;2023-04-02T10:39:38;3.40;;;0.95;;
44766;SDS011;30487;48.716;9.272;2023-04-02T10:42:17;1.48;;;0.70;;
44766;SDS011;30487;48.716;9.272;2023-04-02T10:45:00;1.25;;;0.68;;
44766;SDS011;30487;48.716;9.272;2023-04-02T10:47:42;1.65;;;0.80;;
44766;SDS011;30487;48.716;9.272;2023-04-02T10:50:46;2.53;;;0.73;;
44766;SDS011;30487;48.716;9.272;2023-04-02T10:53:22;1.83;;;0.70;;
44766;SDS011;30487;48.716;9.272;2023-04-02T10:56:01;1.88;;;0.60;;
44766;SDS011;30487;48.716;9.272;2023-04-02T10:58:33;2.60;;;0.70;;
44766;SDS011;30487;48.716;9.272;2023-04-02T11:01:08;3.15;;;0.90;;
44766;SDS011;30487;48.716;9.272;2023-04-02T11:06:14;3.17;;;1.10;;
44766;SDS011;30487;48.716;9.272;2023-04-02T11:08:49;2.60;;;0.90;;
44766;SDS011;30487;48.716;9.272;2023-04-02T11:11:19;2.05;;;1.00;;
44766;SDS011;30487;48.716;9.272;2023-04-02T11:16:34;1.08;;;0.70;;
44766;SDS011;30487;48.716;9.272;2023-04-02T11:24:24;1.50;;;0.60;;
44766;SDS011;30487;48.716;9.272;2023-04-02T11:27:02;3.47;;;0.70;;
44766;SDS011;30487;48.716;9.272;2023-04-02T11:30:00;2.22;;;0.80;;
44766;SDS011;30487;48.716;9.272;2023-04-02T11:32:45;1.42;;;0.55;;
44766;SDS011;30487;48.716;9.272;2023-04-02T11:40:39;1.65;;;0.70;;
44766;SDS011;30487;48.716;9.272;2023-04-02T11:48:49;1.70;;;0.77;;
44766;SDS011;30487;48.716;9.272;2023-04-02T11:53:52;2.30;;;0.70;;
44766;SDS011;30487;48.716;9.272;2023-04-02T11:56:27;1.80;;;0.75;;
44766;SDS011;30487;48.716;9.272;2023-04-02T12:10:33;2.67;;;1.25;;
44766;SDS011;30487;48.716;9.272;2023-04-02T12:16:05;1.98;;;0.80;;
44766;SDS011;30487;48.716;9.272;2023-04-02T12:18:32;1.05;;;0.70;;
44766;SDS011;30487;48.716;9.272;2023-04-02T12:20:59;1.77;;;0.60;;
44766;SDS011;30487;48.716;9.272;2023-04-02T12:23:25;2.45;;;0.70;;
44766;SDS011;30487;48.716;9.272;2023-04-02T12:25:58;1.83;;;0.70;;
44766;SDS011;30487;48.716;9.272;2023-04-02T12:28:30;1.42;;;0.70;;
44766;SDS011;30487;48.716;9.272;2023-04-02T12:31:16;2.05;;;0.80;;
44766;SDS011;30487;48.716;9.272;2023-04-02T12:33:45;2.97;;;0.70;;
44766;SDS011;30487;48.716;9.272;2023-04-02T12:43:55;2.50;;;0.60;;
44766;SDS011;30487;48.716;9.272;2023-04-02T12:46:25;0.80;;;0.45;;
44766;SDS011;30487;48.716;9.272;2023-04-02T12:48:53;2.25;;;0.60;;
44766;SDS011;30487;48.716;9.272;2023-04-02T12:51:20;1.55;;;0.55;;
44766;SDS011;30487;48.716;9.272;2023-04-02T12:53:49;0.50;;;0.40;;
44766;SDS011;30487;48.716;9.272;2023-04-02T12:56:21;2.63;;;0.35;;
44766;SDS011;30487;48.716;9.272;2023-04-02T12:58:52;0.65;;;0.40;;
44766;SDS011;30487;48.716;9.272;2023-04-02T13:01:19;0.95;;;0.40;;
44766;SDS011;30487;48.716;9.272;2023-04-02T13:04:24;2.90;;;0.60;;
44766;SDS011;30487;48.716;9.272;2023-04-02T13:06:46;2.92;;;1.40;;
44766;SDS011;30487;48.716;9.272;2023-04-02T13:09:34;4.05;;;1.85;;
44766;SDS011;30487;48.716;9.272;2023-04-02T13:12:32;2.38;;;1.10;;
44766;SDS011;30487;48.716;9.272;2023-04-02T13:20:30;1.90;;;0.90;;
44766;SDS011;30487;48.716;9.272;2023-04-02T13:22:59;1.48;;;0.70;;
44766;SDS011;30487;48.716;9.272;2023-04-02T13:25:44;2.10;;;0.50;;
44766;SDS011;30487;48.716;9.272;2023-04-02T13:28:10;1.40;;;0.60;;
44766;SDS011;30487;48.716;9.272;2023-04-02T13:30:35;1.58;;;0.63;;
44766;SDS011;30487;48.716;9.272;2023-04-02T13:33:01;0.52;;;0.43;;
44766;SDS011;30487;48.716;9.272;2023-04-02T13:35:27;1.80;;;0.60;;
44766;SDS011;30487;48.716;9.272;2023-04-02T13:37:52;1.77;;;0.63;;
44766;SDS011;30487;48.716;9.272;2023-04-02T13:40:18;2.08;;;0.70;;
44766;SDS011;30487;48.716;9.272;2023-04-02T13:42:43;1.60;;;0.95;;
44766;SDS011;30487;48.716;9.272;2023-04-02T13:45:17;1.27;;;0.77;;
44766;SDS011;30487;48.716;9.272;2023-04-02T13:47:52;2.58;;;0.73;;
44766;SDS011;30487;48.716;9.272;2023-04-02T13:50:22;2.72;;;0.80;;
44766;SDS011;30487;48.716;9.272;2023-04-02T13:52:51;1.83;;;0.88;;
44766;SDS011;30487;48.716;9.272;2023-04-02T13:55:18;4.13;;;2.03;;
44766;SDS011;30487;48.716;9.272;2023-04-02T13:57:46;2.33;;;1.20;;
44766;SDS011;30487;48.716;9.272;2023-04-02T14:00:14;1.85;;;1.00;;
44766;SDS011;30487;48.716;9.272;2023-04-02T14:02:41;2.35;;;1.08;;
44766;SDS011;30487;48.716;9.272;2023-04-02T14:21:30;1.30;;;0.70;;
44766;SDS011;30487;48.716;9.272;2023-04-02T14:40:31;0.90;;;0.70;;
44766;SDS011;30487;48.716;9.272;2023-04-02T14:43:21;1.17;;;0.70;;
44766;SDS011;30487;48.716;9.272;2023-04-02T14:54:06;2.65;;;0.80;;
44766;SDS011;30487;48.716;9.272;2023-04-02T14:59:47;2.35;;;0.80;;
44766;SDS011;30487;48.716;9.272;2023-04-02T15:05:13;1.90;;;0.98;;
44766;SDS011;30487;48.716;9.272;2023-04-02T15:08:04;1.27;;;0.70;;
44766;SDS011;30487;48.716;9.272;2023-04-02T15:10:42;0.75;;;0.50;;
44766;SDS011;30487;48.716;9.272;2023-04-02T15:13:25;1.50;;;0.73;;
44766;SDS011;30487;48.716;9.272;2023-04-02T15:18:49;1.30;;;0.70;;
44766;SDS011;30487;48.716;9.272;2023-04-02T15:24:09;1.20;;;0.70;;
44766;SDS011;30487;48.716;9.272;2023-04-02T15:26:58;1.40;;;0.70;;
44766;SDS011;30487;48.716;9.272;2023-04-02T15:37:40;2.60;;;1.20;;
44766;SDS011;30487;48.716;9.272;2023-04-02T15:43:05;4.05;;;0.90;;
44766;SDS011;30487;48.716;9.272;2023-04-02T15:48:37;2.40;;;0.90;;
44766;SDS011;30487;48.716;9.272;2023-04-02T15:53:57;3.35;;;1.00;;
44766;SDS011;30487;48.716;9.272;2023-04-02T15:56:47;2.88;;;1.02;;
44766;SDS011;30487;48.716;9.272;2023-04-02T16:07:39;5.45;;;2.00;;
44766;SDS011;30487;48.716;9.272;2023-04-02T16:10:21;2.60;;;1.60;;
44766;SDS011;30487;48.716;9.272;2023-04-02T16:12:52;2.83;;;1.48;;
44766;SDS011;30487;48.716;9.272;2023-04-02T16:15:25;3.72;;;1.40;;
44766;SDS011;30487;48.716;9.272;2023-04-02T16:18:04;2.40;;;1.40;;
44766;SDS011;30487;48.716;9.272;2023-04-02T16:20:40;3.40;;;1.48;;
44766;SDS011;30487;48.716;9.272;2023-04-02T16:25:40;2.88;;;1.70;;
44766;SDS011;30487;48.716;9.272;2023-04-02T16:28:23;3.03;;;1.40;;
44766;SDS011;30487;48.716;9.272;2023-04-02T16:36:19;2.58;;;1.23;;
44766;SDS011;30487;48.716;9.272;2023-04-02T16:47:14;2.45;;;1.00;;
44766;SDS011;30487;48.716;9.272;2023-04-02T16:58:02;1.83;;;0.90;;
44766;SDS011;30487;48.716;9.272;2023-04-02T17:00:41;2.75;;;1.10;;
44766;SDS011;30487;48.716;9.272;2023-04-02T17:08:39;2.10;;;1.20;;
44766;SDS011;30487;48.716;9.272;2023-04-02T17:11:08;1.73;;;1.20;;
44766;SDS011;30487;48.716;9.272;2023-04-02T17:13:41;1.52;;;0.90;;
44766;SDS011;30487;48.716;9.272;2023-04-02T17:21:33;1.40;;;0.82;;
44766;SDS011;30487;48.716;9.272;2023-04-02T17:24:13;2.08;;;1.10;;
44766;SDS011;30487;48.716;9.272;2023-04-02T17:27:09;5.90;;;1.17;;
44766;SDS011;30487;48.716;9.272;2023-04-02T17:30:01;2.00;;;1.00;;
44766;SDS011;30487;48.716;9.272;2023-04-02T17:32:32;1.95;;;0.93;;
44766;SDS011;30487;48.716;9.272;2023-04-02T17:43:53;1.80;;;1.10;;
44766;SDS011;30487;48.716;9.272;2023-04-02T17:46:44;1.55;;;0.70;;
44766;SDS011;30487;48.716;9.272;2023-04-02T17:51:56;4.65;;;2.10;;
44766;SDS011;30487;48.716;9.272;2023-04-02T18:02:44;1.80;;;1.00;;
44766;SDS011;30487;48.716;9.272;2023-04-02T18:05:22;2.55;;;1.00;;
44766;SDS011;30487;48.716;9.272;2023-04-02T18:13:35;2.17;;;1.25;;
44766;SDS011;30487;48.716;9.272;2023-04-02T18:18:53;2.92;;;1.13;;
44766;SDS011;30487;48.716;9.272;2023-04-02T18:38:24;3.90;;;2.20;;
44766;SDS011;30487;48.716;9.272;2023-04-02T18:49:25;3.17;;;1.85;;
44766;SDS011;30487;48.716;9.272;2023-04-02T18:51:59;3.25;;;1.67;;
44766;SDS011;30487;48.716;9.272;2023-04-02T18:57:12;4.43;;;2.08;;
44766;SDS011;30487;48.716;9.272;2023-04-02T19:02:47;3.47;;;1.65;;
44766;SDS011;30487;48.716;9.272;2023-04-02T19:10:43;4.10;;;2.03;;
44766;SDS011;30487;48.716;9.272;2023-04-02T19:13:15;5.13;;;2.67;;
44766;SDS011;30487;48.716;9.272;2023-04-02T19:21:08;4.20;;;2.22;;
44766;SDS011;30487;48.716;9.272;2023-04-02T19:37:46;4.53;;;2.10;;
44766;SDS011;30487;48.716;9.272;2023-04-02T19:43:05;3.80;;;2.00;;
44766;SDS011;30487;48.716;9.272;2023-04-02T19:45:39;3.10;;;1.70;;
44766;SDS011;30487;48.716;9.272;2023-04-02T19:50:41;3.35;;;1.80;;
44766;SDS011;30487;48.716;9.272;2023-04-02T19:53:07;3.72;;;1.63;;
44766;SDS011;30487;48.716;9.272;2023-04-02T19:55:33;3.92;;;1.73;;
44766;SDS011;30487;48.716;9.272;2023-04-02T19:57:59;3.63;;;1.90;;
44766;SDS011;30487;48.716;9.272;2023-04-02T20:00:25;3.42;;;1.90;;
44766;SDS011;30487;48.716;9.272;2023-04-02T20:02:50;4.45;;;2.10;;
44766;SDS011;30487;48.716;9.272;2023-04-02T20:05:16;4.35;;;2.10;;
44766;SDS011;30487;48.716;9.272;2023-04-02T20:07:42;3.13;;;1.67;;
44766;SDS011;30487;48.716;9.272;2023-04-02T20:10:08;4.70;;;2.05;;
44766;SDS011;30487;48.716;9.272;2023-04-02T20:12:34;3.90;;;1.73;;
44766;SDS011;30487;48.716;9.272;2023-04-02T20:15:00;4.50;;;2.63;;
44766;SDS011;30487;48.716;9.272;2023-04-02T20:17:26;3.63;;;1.90;;
44766;SDS011;30487;48.716;9.272;2023-04-02T20:19:53;4.25;;;1.77;;
44766;SDS011;30487;48.716;9.272;2023-04-02T20:22:18;3.95;;;1.90;;
44766;SDS011;30487;48.716;9.272;2023-04-02T20:24:44;3.63;;;2.00;;
44766;SDS011;30487;48.716;9.272;2023-04-02T20:27:10;3.38;;;1.60;;
44766;SDS011;30487;48.716;9.272;2023-04-02T20:29:35;4.47;;;1.63;;
44766;SDS011;30487;48.716;9.272;2023-04-02T20:32:01;2.85;;;1.60;;
44766;SDS011;30487;48.716;9.272;2023-04-02T20:34:27;4.68;;;1.85;;
44766;SDS011;30487;48.716;9.272;2023-04-02T20:36:52;3.72;;;2.08;;
44766;SDS011;30487;48.716;9.272;2023-04-02T20:39:18;4.32;;;2.22;;
44766;SDS011;30487;48.716;9.272;2023-04-02T20:41:45;6.75;;;2.00;;
44766;SDS011;30487;48.716;9.272;2023-04-02T20:44:11;3.47;;;1.90;;
44766;SDS011;30487;48.716;9.272;2023-04-02T20:46:37;4.13;;;2.13;;
44766;SDS011;30487;48.716;9.272;2023-04-02T20:49:03;3.75;;;1.90;;
44766;SDS011;30487;48.716;9.272;2023-04-02T20:51:28;3.03;;;1.77;;
44766;SDS011;30487;48.716;9.272;2023-04-02T20:53:54;5.80;;;2.10;;
44766;SDS011;30487;48.716;9.272;2023-04-02T20:56:20;4.45;;;1.80;;
44766;SDS011;30487;48.716;9.272;2023-04-02T20:58:50;4.28;;;2.08;;
44766;SDS011;30487;48.716;9.272;2023-04-02T21:01:20;4.82;;;1.90;;
44766;SDS011;30487;48.716;9.272;2023-04-02T21:03:47;3.97;;;1.70;;
44766;SDS011;30487;48.716;9.272;2023-04-02T21:06:14;3.95;;;1.90;;
44766;SDS011;30487;48.716;9.272;2023-04-02T21:08:42;5.53;;;1.88;;
44766;SDS011;30487;48.716;9.272;2023-04-02T21:11:08;3.53;;;2.00;;
44766;SDS011;30487;48.716;9.272;2023-04-02T21:13:35;4.25;;;1.70;;
44766;SDS011;30487;48.716;9.272;2023-04-02T21:16:01;3.47;;;1.58;;
44766;SDS011;30487;48.716;9.272;2023-04-02T21:18:35;4.32;;;1.83;;
44766;SDS011;30487;48.716;9.272;2023-04-02T21:21:02;6.03;;;2.67;;
44766;SDS011;30487;48.716;9.272;2023-04-02T21:23:30;6.22;;;2.75;;
44766;SDS011;30487;48.716;9.272;2023-04-02T21:28:23;3.72;;;2.00;;